Time;durP1;ratioP1;P1;durP2;ratioP2;P2;SDS_P1;SDS_P2;PMS_P1;PMS_P2;Temp;Humidity;BMP_temperature;BMP_pressure;BME280_temperature;BME280_humidity;BME280_pressure;Samples;Min_cycle;Max_cycle;Signal;HPM_P1;HPM_P2
2024/01/18 00:01:55;;;;;;;3.43;2.70;;;22.80;49.10;;;;;;4995628;28;20448;-80
2024/01/18 00:04:23;;;;;;;3.23;2.90;;;22.80;49.10;;;;;;4995003;28;20476;-80
2024/01/18 00:06:50;;;;;;;2.97;2.20;;;22.80;49.80;;;;;;4994843;28;20931;-80
2024/01/18 00:09:17;;;;;;;2.77;2.57;;;22.80;49.10;;;;;;4994859;28;20942;-80
2024/01/18 00:11:44;;;;;;;3.70;2.53;;;22.80;49.30;;;;;;4995000;28;20819;-80
2024/01/18 00:14:10;;;;;;;3.00;2.70;;;22.80;49.10;;;;;;4995094;28;20444;-89
2024/01/18 00:16:37;;;;;;;4.67;2.80;;;22.80;49.20;;;;;;4995011;28;20448;-80
2024/01/18 00:19:04;;;;;;;2.63;2.43;;;22.80;49.20;;;;;;4994965;28;20448;-80
2024/01/18 00:21:32;;;;;;;2.90;2.50;;;22.80;49.30;;;;;;4995204;28;20474;-81
2024/01/18 00:23:59;;;;;;;3.40;2.87;;;22.80;49.30;;;;;;4994852;28;20441;-80
2024/01/18 00:26:25;;;;;;;3.03;2.73;;;22.80;49.10;;;;;;4995460;28;20809;-80
2024/01/18 00:28:52;;;;;;;3.30;2.70;;;22.80;49.10;;;;;;4994821;28;20531;-80
2024/01/18 00:31:19;;;;;;;3.37;2.53;;;22.80;49.10;;;;;;4994783;28;20444;-80
2024/01/18 00:33:46;;;;;;;5.00;3.03;;;22.80;49.10;;;;;;4994749;28;20490;-88
2024/01/18 00:36:13;;;;;;;3.23;2.53;;;22.80;49.10;;;;;;4994939;28;20444;-80
2024/01/18 00:38:41;;;;;;;2.90;2.60;;;22.80;49.20;;;;;;4994674;28;20442;-80
2024/01/18 00:41:08;;;;;;;3.00;2.70;;;22.80;49.00;;;;;;4994278;28;20437;-81
2024/01/18 00:43:35;;;;;;;2.67;2.43;;;22.80;49.10;;;;;;4994747;28;20443;-81
2024/01/18 00:46:04;;;;;;;2.90;2.63;;;22.80;49.00;;;;;;4994590;28;20436;-89
2024/01/18 00:48:31;;;;;;;2.77;2.57;;;22.80;49.00;;;;;;4994618;28;20487;-80
2024/01/18 00:50:58;;;;;;;3.03;2.73;;;22.80;49.00;;;;;;4994571;28;20444;-81
2024/01/18 00:53:24;;;;;;;2.73;2.30;;;22.80;48.90;;;;;;4994386;28;20523;-80
2024/01/18 00:55:53;;;;;;;2.90;2.57;;;22.80;49.10;;;;;;4994125;28;20447;-80
2024/01/18 00:58:19;;;;;;;2.90;2.47;;;22.80;48.90;;;;;;4994434;28;20451;-80
2024/01/18 01:00:47;;;;;;;2.50;2.30;;;22.80;49.00;;;;;;4994489;28;20447;-80
2024/01/18 01:03:13;;;;;;;2.93;2.43;;;22.80;49.10;;;;;;4994908;28;20481;-80
2024/01/18 01:05:40;;;;;;;2.60;2.33;;;22.80;48.90;;;;;;4994316;28;20440;-80
2024/01/18 01:08:07;;;;;;;2.80;2.50;;;22.80;48.90;;;;;;4994268;28;20829;-80
2024/01/18 01:10:34;;;;;;;3.00;2.70;;;22.80;49.10;;;;;;4994340;28;20527;-80
2024/01/18 01:13:02;;;;;;;2.90;2.07;;;22.80;49.10;;;;;;4994189;28;20483;-80
2024/01/18 01:15:29;;;;;;;2.83;2.27;;;22.80;48.90;;;;;;4993847;28;20455;-80
2024/01/18 01:17:56;;;;;;;3.30;2.90;;;22.80;49.00;;;;;;4994822;28;20775;-81
2024/01/18 01:20:23;;;;;;;3.07;2.43;;;22.80;49.00;;;;;;4994337;28;20793;-80
2024/01/18 01:22:50;;;;;;;2.93;2.60;;;22.80;49.10;;;;;;4994677;28;20522;-80
2024/01/18 01:25:17;;;;;;;2.70;2.50;;;22.80;49.00;;;;;;4994367;28;20776;-80
2024/01/18 01:27:43;;;;;;;2.87;2.60;;;22.80;49.00;;;;;;4994158;28;20538;-80
2024/01/18 01:30:12;;;;;;;3.00;2.30;;;22.80;49.10;;;;;;4994074;28;20446;-80
2024/01/18 01:32:39;;;;;;;2.73;2.50;;;22.80;49.00;;;;;;4994047;28;20514;-80
2024/01/18 01:35:06;;;;;;;2.50;2.10;;;22.80;49.10;;;;;;4994502;28;20444;-80
2024/01/18 01:37:33;;;;;;;3.00;2.47;;;22.80;49.00;;;;;;4993769;28;20449;-80
2024/01/18 01:40:00;;;;;;;2.30;2.10;;;22.80;49.10;;;;;;4994126;28;20818;-80
2024/01/18 01:42:26;;;;;;;2.80;2.30;;;22.70;49.00;;;;;;4993920;28;20448;-81
2024/01/18 01:44:54;;;;;;;2.00;1.80;;;22.80;49.10;;;;;;4993665;28;20934;-80
2024/01/18 01:47:22;;;;;;;2.47;2.27;;;22.80;49.00;;;;;;4993882;28;20559;-80
2024/01/18 01:49:49;;;;;;;3.40;2.43;;;22.80;49.00;;;;;;4993918;28;20447;-80
2024/01/18 01:52:17;;;;;;;2.73;2.30;;;22.70;48.90;;;;;;4993864;28;20484;-80
2024/01/18 01:54:45;;;;;;;2.20;2.00;;;22.80;49.00;;;;;;4993522;28;20472;-81
2024/01/18 01:57:12;;;;;;;2.60;2.27;;;22.80;49.00;;;;;;4993831;28;20440;-80
2024/01/18 01:59:39;;;;;;;2.50;2.30;;;22.70;48.90;;;;;;4993492;28;20448;-80
2024/01/18 02:02:07;;;;;;;2.57;2.20;;;22.70;49.00;;;;;;4993841;28;20454;-88
2024/01/18 02:04:36;;;;;;;2.77;2.37;;;22.70;49.00;;;;;;4993473;28;20436;-81
2024/01/18 02:07:04;;;;;;;2.73;2.23;;;22.70;48.80;;;;;;4993856;28;20444;-80
2024/01/18 02:09:31;;;;;;;2.50;2.07;;;22.70;48.90;;;;;;4993555;28;20440;-80
2024/01/18 02:11:58;;;;;;;2.40;2.17;;;22.80;49.00;;;;;;4993630;28;20431;-80
2024/01/18 02:14:25;;;;;;;2.30;2.07;;;22.80;49.00;;;;;;4993703;28;20455;-81
2024/01/18 02:16:52;;;;;;;2.77;2.37;;;22.70;48.90;;;;;;4993593;28;21018;-80
2024/01/18 02:19:19;;;;;;;2.63;2.43;;;22.70;49.00;;;;;;4993666;28;20448;-80
2024/01/18 02:21:47;;;;;;;2.87;2.23;;;22.70;49.00;;;;;;4996688;28;20798;-80
2024/01/18 02:24:18;;;;;;;2.20;1.93;;;22.80;49.10;;;;;;4997189;28;20443;-81
2024/01/18 02:26:46;;;;;;;3.00;2.43;;;22.70;48.90;;;;;;4997670;28;20440;-80
2024/01/18 02:29:13;;;;;;;2.37;2.10;;;22.70;48.80;;;;;;4996757;28;20940;-80
2024/01/18 02:31:39;;;;;;;2.33;2.03;;;22.70;48.80;;;;;;4996705;28;20443;-80
2024/01/18 02:34:10;;;;;;;2.80;2.33;;;22.70;48.90;;;;;;4996858;28;20498;-80
2024/01/18 02:36:37;;;;;;;2.20;2.00;;;22.70;48.90;;;;;;4997277;28;20436;-80
2024/01/18 02:39:04;;;;;;;2.87;2.30;;;22.70;48.90;;;;;;4996832;28;20477;-80
2024/01/18 02:41:31;;;;;;;2.40;2.20;;;22.70;48.90;;;;;;4997000;28;20445;-80
2024/01/18 02:44:00;;;;;;;2.50;2.30;;;22.70;48.90;;;;;;4996821;28;20483;-80
2024/01/18 02:46:27;;;;;;;3.37;2.87;;;22.70;48.80;;;;;;4996741;28;20440;-80
2024/01/18 02:48:54;;;;;;;2.40;2.13;;;22.70;48.90;;;;;;4996729;28;20444;-80
2024/01/18 02:51:21;;;;;;;3.27;2.70;;;22.70;48.90;;;;;;4996609;28;20458;-80
2024/01/18 02:53:48;;;;;;;2.73;2.30;;;22.70;48.90;;;;;;4996357;28;20496;-80
2024/01/18 02:56:14;;;;;;;3.23;2.60;;;22.70;48.90;;;;;;4996833;28;20441;-81
2024/01/18 02:58:41;;;;;;;2.33;2.13;;;22.70;48.80;;;;;;4996195;28;20447;-80
2024/01/18 03:01:10;;;;;;;3.70;2.60;;;22.70;48.90;;;;;;4996512;28;20471;-80
2024/01/18 03:03:37;;;;;;;3.03;2.73;;;22.70;48.90;;;;;;4996542;28;20495;-80
2024/01/18 03:06:04;;;;;;;2.40;2.10;;;22.70;49.10;;;;;;4996432;28;20442;-80
2024/01/18 03:08:31;;;;;;;2.70;2.10;;;22.70;48.80;;;;;;4996937;28;20440;-80
2024/01/18 03:10:58;;;;;;;2.23;1.70;;;22.70;48.80;;;;;;4996331;28;20438;-80
2024/01/18 03:13:25;;;;;;;3.27;2.13;;;22.70;48.90;;;;;;4996194;28;20491;-80
2024/01/18 03:15:52;;;;;;;2.87;1.90;;;22.70;48.90;;;;;;4996151;28;20458;-80
2024/01/18 03:18:20;;;;;;;3.10;2.50;;;22.70;48.80;;;;;;4996167;28;20450;-80
2024/01/18 03:20:46;;;;;;;2.70;2.50;;;22.70;48.80;;;;;;4996596;28;20447;-80
2024/01/18 03:23:14;;;;;;;2.30;2.10;;;22.70;48.80;;;;;;4995752;28;20447;-80
2024/01/18 03:25:40;;;;;;;3.13;2.10;;;22.70;48.90;;;;;;4995834;28;20481;-80
2024/01/18 03:28:07;;;;;;;2.50;1.87;;;22.70;48.80;;;;;;4996007;28;20805;-80
2024/01/18 03:30:34;;;;;;;2.50;2.13;;;22.70;48.80;;;;;;4995911;28;20466;-80
2024/01/18 03:36:23;;;;;;;2.80;2.60;;;22.70;48.70;;;;;;4995807;28;20846;-80
2024/01/18 03:38:50;;;;;;;3.20;2.63;;;22.70;48.90;;;;;;4995861;28;20432;-80
2024/01/18 03:41:17;;;;;;;2.77;2.20;;;22.70;48.80;;;;;;4995715;28;20534;-80
2024/01/18 03:43:44;;;;;;;2.40;2.00;;;22.70;48.80;;;;;;4995689;28;20442;-88
2024/01/18 03:46:14;;;;;;;2.70;1.97;;;22.70;48.90;;;;;;4995617;28;20436;-79
2024/01/18 03:48:40;;;;;;;3.00;2.70;;;22.70;48.90;;;;;;4995849;28;20444;-80
2024/01/18 03:51:08;;;;;;;2.80;2.50;;;22.70;48.80;;;;;;4995579;28;20443;-81
2024/01/18 03:53:36;;;;;;;2.47;2.07;;;22.70;48.90;;;;;;4994882;28;20494;-80
2024/01/18 03:56:03;;;;;;;3.27;2.40;;;22.70;48.80;;;;;;4995480;28;20424;-80
2024/01/18 03:58:30;;;;;;;2.73;2.27;;;22.70;48.80;;;;;;4995366;28;20454;-80
2024/01/18 04:00:56;;;;;;;2.80;2.47;;;22.70;48.80;;;;;;4995461;28;20450;-80
2024/01/18 04:03:23;;;;;;;2.43;2.23;;;22.70;48.80;;;;;;4995312;28;20436;-87
2024/01/18 04:05:50;;;;;;;2.80;2.20;;;22.70;48.80;;;;;;4995369;28;20448;-85
2024/01/18 04:08:17;;;;;;;2.33;2.07;;;22.70;48.70;;;;;;4994968;28;21025;-81
2024/01/18 04:10:45;;;;;;;2.63;2.10;;;22.70;48.80;;;;;;4994841;28;20455;-80
2024/01/18 04:13:11;;;;;;;2.30;1.93;;;22.70;48.70;;;;;;4994874;28;20488;-80
2024/01/18 04:15:38;;;;;;;2.30;2.10;;;22.70;48.70;;;;;;4994824;28;20452;-80
2024/01/18 04:18:05;;;;;;;3.03;2.30;;;22.70;48.70;;;;;;4994731;28;20442;-80
2024/01/18 04:20:32;;;;;;;2.90;2.30;;;22.60;48.80;;;;;;4995021;28;20436;-81
2024/01/18 04:22:59;;;;;;;2.97;2.70;;;22.60;48.70;;;;;;4994952;28;20450;-82
2024/01/18 04:25:26;;;;;;;2.40;2.10;;;22.60;48.70;;;;;;4994935;28;20805;-81
2024/01/18 04:27:55;;;;;;;3.17;2.60;;;22.60;48.80;;;;;;4995002;28;20440;-81
2024/01/18 04:30:21;;;;;;;2.90;2.40;;;22.60;48.80;;;;;;4995624;28;20459;-80
2024/01/18 04:32:48;;;;;;;3.67;2.47;;;22.60;48.80;;;;;;4994797;28;20791;-80
2024/01/18 04:35:15;;;;;;;2.70;2.43;;;22.60;48.80;;;;;;4994757;28;20542;-80
2024/01/18 04:37:42;;;;;;;2.67;2.33;;;22.60;48.80;;;;;;4994426;28;20444;-80
2024/01/18 04:40:10;;;;;;;2.53;2.33;;;22.60;48.80;;;;;;4994651;28;20818;-80
2024/01/18 04:42:37;;;;;;;2.27;1.97;;;22.60;48.70;;;;;;4994533;28;20779;-80
2024/01/18 04:45:07;;;;;;;2.60;2.40;;;22.60;48.70;;;;;;4994189;28;20462;-80
2024/01/18 04:47:34;;;;;;;2.70;2.23;;;22.70;48.80;;;;;;4994591;28;20847;-80
2024/01/18 04:50:00;;;;;;;2.90;2.60;;;22.70;48.70;;;;;;4995004;28;20440;-80
2024/01/18 04:52:27;;;;;;;2.70;2.10;;;22.60;48.70;;;;;;4994413;28;20436;-80
2024/01/18 04:54:56;;;;;;;2.47;2.27;;;22.60;48.70;;;;;;4994023;28;20506;-88
2024/01/18 04:57:22;;;;;;;2.77;2.23;;;22.70;48.70;;;;;;4994506;28;20534;-80
2024/01/18 04:59:49;;;;;;;2.57;2.10;;;22.70;48.70;;;;;;4994449;28;20428;-80
2024/01/18 05:02:19;;;;;;;2.23;1.80;;;22.70;48.80;;;;;;4994135;28;20446;-80
2024/01/18 05:04:46;;;;;;;2.83;2.43;;;22.70;48.70;;;;;;4994297;28;20436;-80
2024/01/18 05:07:13;;;;;;;2.70;2.07;;;22.70;48.70;;;;;;4994411;28;20444;-80
2024/01/18 05:09:40;;;;;;;2.27;2.07;;;22.70;48.70;;;;;;4993961;28;20444;-80
2024/01/18 05:12:08;;;;;;;2.53;2.10;;;22.70;48.60;;;;;;4994161;28;20443;-87
2024/01/18 05:14:34;;;;;;;2.50;2.27;;;22.70;48.60;;;;;;4994155;28;20491;-80
2024/01/18 05:17:05;;;;;;;2.53;2.30;;;22.80;48.80;;;;;;4994241;28;20450;-81
2024/01/18 05:19:33;;;;;;;2.40;2.20;;;22.70;48.70;;;;;;4994270;28;20531;-80
2024/01/18 05:22:00;;;;;;;2.47;1.90;;;22.70;48.70;;;;;;4994162;28;20543;-80
2024/01/18 05:24:27;;;;;;;2.50;2.03;;;22.70;48.60;;;;;;4994267;28;20444;-81
2024/01/18 05:26:54;;;;;;;2.50;1.90;;;22.70;48.60;;;;;;4993812;28;20448;-80
2024/01/18 05:29:21;;;;;;;2.93;2.63;;;22.80;48.60;;;;;;4994198;28;20456;-80
2024/01/18 05:31:48;;;;;;;2.73;2.03;;;22.80;48.60;;;;;;4994092;28;20446;-80
2024/01/18 05:34:15;;;;;;;2.60;2.30;;;22.70;48.50;;;;;;4994149;28;20494;-80
2024/01/18 05:36:43;;;;;;;2.60;2.20;;;22.80;48.70;;;;;;4994957;28;20791;-88
2024/01/18 05:39:10;;;;;;;3.23;2.40;;;22.70;48.60;;;;;;4993989;28;20447;-80
2024/01/18 05:41:37;;;;;;;2.30;1.90;;;22.80;48.60;;;;;;4993798;28;20517;-80
2024/01/18 05:44:04;;;;;;;2.50;2.20;;;22.80;48.60;;;;;;4993972;28;20435;-80
2024/01/18 05:46:31;;;;;;;2.43;2.23;;;22.80;48.50;;;;;;4994195;28;20442;-81
2024/01/18 05:48:57;;;;;;;2.93;1.90;;;22.80;48.50;;;;;;4994006;28;20436;-82
2024/01/18 05:51:24;;;;;;;2.70;2.00;;;22.80;48.60;;;;;;4993902;28;20436;-80
2024/01/18 05:53:52;;;;;;;2.20;2.00;;;22.80;48.50;;;;;;4993311;28;20492;-80
2024/01/18 05:56:19;;;;;;;2.43;2.23;;;22.80;48.50;;;;;;4996070;28;20444;-80
2024/01/18 05:58:46;;;;;;;2.20;1.90;;;22.80;48.50;;;;;;4997687;28;20817;-81
2024/01/18 06:01:12;;;;;;;2.90;2.30;;;22.80;48.50;;;;;;4997631;28;20787;-81
2024/01/18 06:03:39;;;;;;;3.10;2.27;;;22.80;48.50;;;;;;4997355;28;20968;-81
2024/01/18 06:06:06;;;;;;;2.83;2.53;;;22.80;48.50;;;;;;4997358;28;20448;-80
2024/01/18 06:08:33;;;;;;;2.60;2.30;;;22.70;48.50;;;;;;4997221;28;20450;-81
2024/01/18 06:11:01;;;;;;;3.10;2.23;;;22.80;48.50;;;;;;4997932;28;20440;-80
2024/01/18 06:13:29;;;;;;;3.20;2.50;;;22.70;48.50;;;;;;4997312;28;20803;-81
2024/01/18 06:15:56;;;;;;;4.17;2.70;;;22.70;48.50;;;;;;4997283;28;20448;-88
2024/01/18 06:18:23;;;;;;;2.63;2.40;;;22.80;48.50;;;;;;4997013;28;20482;-88
2024/01/18 06:20:50;;;;;;;2.80;2.47;;;22.70;48.50;;;;;;4997230;28;20792;-80
2024/01/18 06:23:17;;;;;;;2.67;2.00;;;22.80;48.60;;;;;;4997193;28;20476;-81
2024/01/18 06:25:43;;;;;;;2.90;2.20;;;22.80;48.50;;;;;;4997187;28;20446;-80
2024/01/18 06:28:11;;;;;;;2.63;2.10;;;22.80;48.60;;;;;;4997062;28;20455;-85
2024/01/18 06:30:43;;;;;;;2.03;1.83;;;22.80;48.60;;;;;;4997106;28;20811;-81
2024/01/18 06:33:10;;;;;;;2.77;2.50;;;22.80;48.50;;;;;;4996735;28;20990;-81
2024/01/18 06:35:37;;;;;;;3.20;2.90;;;22.80;48.50;;;;;;4996696;28;20578;-81
2024/01/18 06:38:04;;;;;;;2.60;2.20;;;22.90;48.60;;;;;;4996835;28;20451;-83
2024/01/18 06:40:31;;;;;;;2.50;2.20;;;22.80;48.40;;;;;;4997302;28;20448;-80
2024/01/18 06:42:57;;;;;;;3.10;2.40;;;22.80;48.40;;;;;;4996833;28;20953;-81
2024/01/18 06:45:25;;;;;;;2.70;2.50;;;22.80;48.50;;;;;;4996417;28;20953;-81
2024/01/18 06:47:52;;;;;;;2.67;2.23;;;22.80;48.50;;;;;;4996703;28;20444;-81
2024/01/18 06:50:19;;;;;;;2.50;2.30;;;22.80;48.40;;;;;;4996359;28;20444;-80
2024/01/18 06:52:46;;;;;;;2.60;2.00;;;22.80;48.40;;;;;;4996625;28;20451;-81
2024/01/18 06:55:13;;;;;;;2.83;2.30;;;22.80;48.30;;;;;;4996264;28;20496;-84
2024/01/18 06:57:39;;;;;;;2.67;2.30;;;22.80;48.30;;;;;;4996526;28;20448;-80
2024/01/18 07:00:07;;;;;;;2.20;2.00;;;22.80;48.40;;;;;;4996741;28;20454;-81
2024/01/18 07:02:35;;;;;;;3.40;2.70;;;22.80;48.40;;;;;;4996450;28;20788;-80
2024/01/18 07:05:02;;;;;;;2.40;2.20;;;22.80;48.30;;;;;;4996615;28;20538;-80
2024/01/18 07:07:29;;;;;;;2.67;2.43;;;22.80;48.30;;;;;;4996276;28;20444;-81
2024/01/18 07:09:56;;;;;;;2.87;2.43;;;22.80;48.30;;;;;;4996358;28;20447;-81
2024/01/18 07:12:24;;;;;;;2.70;2.30;;;22.80;48.30;;;;;;4996352;28;20443;-80
2024/01/18 07:14:51;;;;;;;2.20;2.00;;;22.80;48.20;;;;;;4996133;28;20848;-81
2024/01/18 07:17:18;;;;;;;3.27;2.57;;;22.90;48.20;;;;;;4996227;28;20806;-80
2024/01/18 07:19:46;;;;;;;3.27;2.20;;;22.90;48.10;;;;;;4995850;28;20443;-80
2024/01/18 07:22:13;;;;;;;2.97;2.50;;;22.90;48.00;;;;;;4995939;28;20835;-80
2024/01/18 07:24:39;;;;;;;3.53;2.80;;;22.90;48.10;;;;;;4996441;28;20470;-80
2024/01/18 07:27:09;;;;;;;3.17;2.87;;;22.90;48.10;;;;;;4996458;28;20448;-80
2024/01/18 07:29:36;;;;;;;2.50;2.30;;;22.90;48.20;;;;;;4996513;28;20570;-80
2024/01/18 07:35:26;;;;;;;3.80;2.87;;;22.90;48.10;;;;;;4995584;28;20459;-80
2024/01/18 07:37:53;;;;;;;4.37;2.50;;;22.90;48.10;;;;;;4995848;28;20451;-83
2024/01/18 07:40:20;;;;;;;2.67;2.23;;;22.90;48.20;;;;;;4995426;28;20435;-81
2024/01/18 07:42:46;;;;;;;2.70;2.20;;;22.90;48.30;;;;;;4996153;28;20456;-81
2024/01/18 07:45:14;;;;;;;2.53;2.33;;;22.90;48.30;;;;;;4995346;28;20444;-81
2024/01/18 07:47:41;;;;;;;2.87;2.30;;;22.90;48.30;;;;;;4995330;28;20448;-81
2024/01/18 07:50:09;;;;;;;2.33;2.10;;;22.90;48.30;;;;;;4995657;28;20448;-81
2024/01/18 07:52:38;;;;;;;3.17;2.70;;;22.90;48.30;;;;;;4995526;28;20436;-81
2024/01/18 07:55:07;;;;;;;2.93;2.60;;;22.90;48.30;;;;;;4995223;28;20504;-81
2024/01/18 07:57:33;;;;;;;2.60;2.20;;;22.90;48.30;;;;;;4996115;28;20501;-81
2024/01/18 08:00:01;;;;;;;2.73;2.53;;;22.90;48.20;;;;;;4996015;28;20440;-81
2024/01/18 08:02:28;;;;;;;3.50;2.43;;;22.90;48.30;;;;;;4996019;28;20451;-81
2024/01/18 08:04:54;;;;;;;2.93;2.50;;;22.90;48.30;;;;;;4995560;28;20507;-88
2024/01/18 08:07:21;;;;;;;3.00;2.70;;;22.90;48.30;;;;;;4995623;28;20447;-81
2024/01/18 08:09:49;;;;;;;6.60;2.20;;;22.90;48.30;;;;;;4995344;28;20450;-81
2024/01/18 08:12:16;;;;;;;3.50;2.80;;;22.90;48.30;;;;;;4995400;28;20809;-81
2024/01/18 08:14:44;;;;;;;2.67;2.47;;;22.90;48.40;;;;;;4995379;28;20482;-81
2024/01/18 08:17:11;;;;;;;2.57;2.37;;;22.90;48.40;;;;;;4995795;28;20452;-81
2024/01/18 08:19:39;;;;;;;2.63;2.30;;;22.90;48.40;;;;;;4995175;28;20440;-83
2024/01/18 08:22:07;;;;;;;3.33;2.83;;;22.90;48.40;;;;;;4995019;28;20454;-80
2024/01/18 08:24:33;;;;;;;2.10;1.90;;;22.90;48.40;;;;;;4996110;28;20440;-81
2024/01/18 08:27:00;;;;;;;3.03;2.73;;;23.00;48.50;;;;;;4995193;28;20440;-81
2024/01/18 08:29:27;;;;;;;2.50;2.30;;;23.00;48.50;;;;;;4994964;28;20447;-80
2024/01/18 08:31:55;;;;;;;2.50;2.30;;;23.00;48.40;;;;;;4994397;28;20455;-81
2024/01/18 08:34:21;;;;;;;2.57;2.30;;;23.00;48.40;;;;;;4994732;28;20484;-82
2024/01/18 08:36:48;;;;;;;3.13;2.50;;;23.00;48.40;;;;;;4997074;28;20456;-81
2024/01/18 08:39:15;;;;;;;3.23;2.93;;;23.00;48.40;;;;;;4995219;28;20492;-80
2024/01/18 08:41:42;;;;;;;2.57;2.33;;;23.00;48.70;;;;;;4994818;28;20444;-91
2024/01/18 08:44:10;;;;;;;2.87;2.57;;;23.00;48.70;;;;;;4994718;28;20437;-82
2024/01/18 08:46:38;;;;;;;3.30;2.80;;;23.10;48.80;;;;;;4994914;28;20440;-81
2024/01/18 08:49:05;;;;;;;2.43;2.23;;;23.10;48.70;;;;;;4994391;28;20444;-81
2024/01/18 08:51:32;;;;;;;3.23;2.50;;;23.10;48.70;;;;;;4994274;28;20451;-91
2024/01/18 08:53:59;;;;;;;6.60;2.87;;;23.10;48.80;;;;;;4994159;28;20479;-82
2024/01/18 08:56:25;;;;;;;2.73;2.27;;;23.10;48.60;;;;;;5016678;23;20962;-82
2024/01/18 08:58:52;;;;;;;3.83;2.63;;;23.10;48.50;;;;;;5013143;28;20514;-82
2024/01/18 09:01:20;;;;;;;3.00;2.40;;;23.10;48.50;;;;;;5011938;28;20446;-82
2024/01/18 09:03:47;;;;;;;3.63;2.90;;;23.10;48.60;;;;;;5012034;28;20438;-81
2024/01/18 09:06:14;;;;;;;3.20;2.77;;;23.10;48.60;;;;;;5012900;28;20455;-81
2024/01/18 09:08:40;;;;;;;3.00;2.17;;;23.20;48.60;;;;;;5012561;28;20439;-92
2024/01/18 09:11:08;;;;;;;2.43;2.23;;;23.20;48.50;;;;;;5013133;28;20439;-93
2024/01/18 09:13:35;;;;;;;3.40;2.87;;;23.20;48.50;;;;;;5013447;28;20952;-81
2024/01/18 09:16:02;;;;;;;4.10;3.30;;;23.20;48.60;;;;;;5013873;28;20493;-82
2024/01/18 09:18:30;;;;;;;2.93;2.60;;;23.20;48.20;;;;;;5015401;28;20439;-83
2024/01/18 09:20:56;;;;;;;4.57;3.63;;;23.20;47.10;;;;;;5013995;28;20435;-84
2024/01/18 09:23:23;;;;;;;6.20;3.00;;;23.10;46.60;;;;;;5004846;28;20434;-82
2024/01/18 09:25:50;;;;;;;3.50;2.90;;;23.10;47.40;;;;;;5000004;28;20447;-89
2024/01/18 09:28:17;;;;;;;7.77;4.80;;;23.10;47.90;;;;;;5003871;28;20432;-81
2024/01/18 09:30:43;;;;;;;5.07;3.27;;;23.10;47.60;;;;;;4995555;28;20440;-91
2024/01/18 09:33:10;;;;;;;4.40;3.23;;;23.10;47.90;;;;;;4999053;28;20428;-82
2024/01/18 09:35:40;;;;;;;8.60;3.50;;;23.20;48.00;;;;;;4998609;28;20483;-81
2024/01/18 09:38:10;;;;;;;4.37;3.00;;;23.20;47.80;;;;;;4997224;28;20442;-88
2024/01/18 09:40:38;;;;;;;3.87;3.37;;;23.20;47.90;;;;;;4998765;28;20456;-89
2024/01/18 09:43:09;;;;;;;3.13;2.60;;;23.30;48.10;;;;;;4998006;28;20962;-82
2024/01/18 09:45:39;;;;;;;3.97;2.93;;;23.30;48.10;;;;;;5003954;28;20444;-90
2024/01/18 09:48:07;;;;;;;3.50;3.20;;;23.40;48.70;;;;;;5003728;28;20840;-89
2024/01/18 09:50:36;;;;;;;4.47;3.27;;;23.40;48.00;;;;;;5017979;28;20478;-89
2024/01/18 09:53:05;;;;;;;7.00;2.87;;;23.50;48.00;;;;;;4977117;28;20491;-81
2024/01/18 09:55:32;;;;;;;8.40;3.17;;;23.60;48.10;;;;;;4977203;28;20499;-81
2024/01/18 09:58:01;;;;;;;4.93;2.87;;;23.70;48.20;;;;;;4977959;28;20445;-82
2024/01/18 10:00:31;;;;;;;4.23;2.60;;;23.80;48.10;;;;;;4977245;28;20812;-81
2024/01/18 10:02:58;;;;;;;4.97;3.17;;;24.00;47.80;;;;;;4977154;28;20445;-81
2024/01/18 10:05:26;;;;;;;12.90;3.63;;;24.20;47.80;;;;;;4987356;28;20931;-82
2024/01/18 10:07:53;;;;;;;8.50;2.70;;;24.40;47.40;;;;;;4999039;28;20446;-82
2024/01/18 10:10:21;;;;;;;3.83;3.13;;;24.50;46.90;;;;;;5001289;28;20495;-85
2024/01/18 10:12:48;;;;;;;3.90;3.13;;;24.70;46.60;;;;;;4996873;28;20436;-82
2024/01/18 10:15:32;;;;;;;5.63;3.00;;;24.90;46.70;;;;;;4996792;28;20482;-86
2024/01/18 10:17:59;;;;;;;7.10;2.80;;;25.30;46.80;;;;;;4996476;28;20439;-87
2024/01/18 10:20:26;;;;;;;4.47;3.17;;;25.60;46.60;;;;;;4997057;28;20450;-84
2024/01/18 10:22:54;;;;;;;6.43;3.37;;;26.00;46.30;;;;;;4996612;28;20455;-88
2024/01/18 10:25:25;;;;;;;3.50;2.93;;;26.30;46.10;;;;;;4997332;28;20436;-94
2024/01/18 10:27:53;;;;;;;6.33;2.97;;;26.50;46.00;;;;;;4996571;28;20532;-82
2024/01/18 10:30:19;;;;;;;5.07;2.73;;;26.60;45.90;;;;;;4996020;28;20577;-82
2024/01/18 10:32:47;;;;;;;6.80;2.63;;;26.70;46.50;;;;;;4996146;28;20444;-82
2024/01/18 10:35:20;;;;;;;5.40;3.30;;;26.50;46.20;;;;;;4996835;28;20491;-94
2024/01/18 10:37:48;;;;;;;19.83;5.00;;;26.20;46.50;;;;;;4999317;28;20448;-81
2024/01/18 10:40:19;;;;;;;5.70;3.20;;;25.90;45.90;;;;;;4996408;28;20444;-86
2024/01/18 10:42:47;;;;;;;7.90;3.00;;;25.60;46.50;;;;;;4995763;28;20453;-82
2024/01/18 10:45:15;;;;;;;3.33;3.03;;;25.40;47.40;;;;;;4995285;28;20468;-81
2024/01/18 10:47:42;;;;;;;3.63;2.90;;;25.20;47.60;;;;;;4994652;28;20474;-81
2024/01/18 10:50:10;;;;;;;3.30;2.80;;;25.00;47.80;;;;;;4994654;28;20439;-81
2024/01/18 10:52:38;;;;;;;3.27;2.47;;;24.90;48.00;;;;;;4994591;28;21241;-81
2024/01/18 10:55:08;;;;;;;6.37;2.97;;;24.90;48.10;;;;;;4994431;28;20491;-81
2024/01/18 10:57:35;;;;;;;3.20;2.50;;;24.90;48.20;;;;;;4994434;28;20444;-81
2024/01/18 11:00:07;;;;;;;3.90;2.70;;;24.90;48.20;;;;;;4994324;28;20455;-81
2024/01/18 11:02:39;;;;;;;5.60;2.33;;;25.00;48.30;;;;;;4994217;28;20443;-81
2024/01/18 11:05:09;;;;;;;6.50;2.43;;;25.00;48.40;;;;;;4994643;28;20495;-81
2024/01/18 11:07:37;;;;;;;3.10;2.70;;;25.00;48.20;;;;;;4994340;28;20962;-81
2024/01/18 11:10:07;;;;;;;3.77;3.00;;;25.00;48.40;;;;;;4994820;28;20440;-87
2024/01/18 11:12:35;;;;;;;4.93;2.97;;;25.00;48.40;;;;;;4995994;28;20431;-82
2024/01/18 11:15:05;;;;;;;4.10;2.60;;;24.90;48.50;;;;;;4995686;28;20472;-81
2024/01/18 11:17:32;;;;;;;5.00;2.50;;;24.90;48.70;;;;;;4996247;28;20440;-95
2024/01/18 11:20:01;;;;;;;3.73;2.23;;;24.80;48.80;;;;;;4995739;28;20959;-82
2024/01/18 11:22:30;;;;;;;4.10;2.83;;;24.70;49.00;;;;;;4995615;28;20811;-93
2024/01/18 11:25:03;;;;;;;4.67;2.70;;;24.50;49.10;;;;;;4995523;28;20444;-81
2024/01/18 11:27:36;;;;;;;2.60;2.00;;;24.50;49.30;;;;;;4995534;28;20436;-82
2024/01/18 11:30:06;;;;;;;2.93;2.60;;;24.40;49.40;;;;;;4995554;28;20466;-82
2024/01/18 11:32:34;;;;;;;3.63;3.20;;;24.40;49.60;;;;;;4995135;28;20447;-81
2024/01/18 11:35:11;;;;;;;3.10;2.33;;;24.30;49.60;;;;;;4995073;28;20440;-81
2024/01/18 11:37:38;;;;;;;5.17;2.40;;;24.20;49.70;;;;;;4995434;28;20440;-81
2024/01/18 11:40:12;;;;;;;2.87;2.17;;;24.20;49.70;;;;;;4995240;28;20444;-88
2024/01/18 11:42:40;;;;;;;4.63;2.90;;;24.20;49.80;;;;;;4995299;28;20483;-81
2024/01/18 11:45:16;;;;;;;3.30;2.03;;;24.10;49.80;;;;;;4995966;28;20919;-81
2024/01/18 11:47:43;;;;;;;2.77;2.10;;;24.10;50.10;;;;;;4994635;28;20768;-81
2024/01/18 11:50:11;;;;;;;3.13;2.30;;;24.00;50.10;;;;;;4995362;28;20436;-88
2024/01/18 11:52:39;;;;;;;5.53;2.30;;;24.00;50.30;;;;;;4994409;28;20460;-81
2024/01/18 11:55:08;;;;;;;3.93;2.10;;;24.00;50.40;;;;;;4995189;28;20440;-81
2024/01/18 11:57:35;;;;;;;2.77;1.90;;;24.00;50.20;;;;;;4995301;28;20475;-81
2024/01/18 12:00:03;;;;;;;7.80;2.97;;;24.00;50.30;;;;;;4995423;28;20440;-81
2024/01/18 12:02:31;;;;;;;5.43;1.83;;;24.00;50.40;;;;;;4995024;28;20791;-81
2024/01/18 12:04:58;;;;;;;2.33;1.93;;;23.90;50.40;;;;;;4995053;28;20573;-82
2024/01/18 12:07:26;;;;;;;3.07;2.00;;;23.90;50.40;;;;;;4994942;28;20870;-82
2024/01/18 12:09:53;;;;;;;5.00;2.33;;;23.90;50.50;;;;;;4994940;28;20432;-82
2024/01/18 12:12:20;;;;;;;4.70;2.27;;;23.80;50.50;;;;;;4995015;28;20458;-81
2024/01/18 12:14:48;;;;;;;2.93;2.50;;;23.80;50.70;;;;;;4994724;28;20443;-81
2024/01/18 12:17:16;;;;;;;3.70;2.00;;;23.80;50.60;;;;;;4994725;28;20483;-81
2024/01/18 12:19:46;;;;;;;3.53;2.00;;;23.70;50.60;;;;;;4994622;28;20443;-81
2024/01/18 12:22:14;;;;;;;3.80;1.90;;;23.70;50.50;;;;;;4994832;28;20467;-81
2024/01/18 12:24:42;;;;;;;3.30;2.37;;;23.70;50.50;;;;;;4994590;28;20522;-81
2024/01/18 12:27:09;;;;;;;5.57;2.33;;;23.70;50.50;;;;;;4994592;28;20440;-88
2024/01/18 12:29:38;;;;;;;6.60;3.90;;;23.70;50.50;;;;;;4994523;28;20443;-86
2024/01/18 12:32:05;;;;;;;5.07;3.60;;;23.60;50.70;;;;;;4994530;28;20437;-81
2024/01/18 12:34:33;;;;;;;6.83;3.50;;;23.60;50.90;;;;;;4994272;28;20910;-81
2024/01/18 12:37:02;;;;;;;5.70;3.97;;;23.60;51.10;;;;;;4995043;28;20480;-83
2024/01/18 12:39:30;;;;;;;8.57;3.10;;;23.60;51.50;;;;;;4994515;28;20455;-81
2024/01/18 12:41:58;;;;;;;6.43;3.53;;;23.60;51.10;;;;;;4993505;28;20444;-81
2024/01/18 12:44:25;;;;;;;4.87;3.37;;;23.50;51.40;;;;;;4994193;28;20436;-82
2024/01/18 12:46:54;;;;;;;4.83;3.10;;;23.50;51.50;;;;;;4994247;28;20441;-82
2024/01/18 12:49:21;;;;;;;4.23;2.87;;;23.50;51.60;;;;;;4994097;28;20428;-81
2024/01/18 12:51:54;;;;;;;5.80;3.33;;;23.50;51.70;;;;;;4994204;28;20975;-82
2024/01/18 12:54:22;;;;;;;5.10;2.93;;;23.40;51.70;;;;;;4993983;28;20436;-81
2024/01/18 12:56:56;;;;;;;5.00;3.23;;;23.40;51.70;;;;;;4993856;28;20492;-81